Reesville, Ohio
Current Conditions -  °F | °C
As of 3:54 PM on Monday 24 Nov 2014 (Local Time) from KILN Reporting Station
Overcast Overcast  
Wind Chill: 35°   Ceiling: 3400
Heat Index: 44°   Visibility: 10mi
Dew Point: 33°   Wind: 23mph
Humidity: 65%   Direction: 240°WSW
Pressure: 29.67"   Gusts: 31mph
Location:  39.48°N, 83.68°W
Report Text: KILN 242054Z AUTO 24020G27KT 10SM OVC034 07/01 A2967 RMK AO2 PK WND 24037/2026 SLP057 T00670006 53051
Loading
Personal Weather Stations






























Interactive Weather Map New forecast layout! Learn more

10-Day Weather Forecast

Advertisements
Track Severe Weather on mobile